Agate, Nebraska
Current Conditions -  °F | °C
As of 9:53 AM on Friday 19 Dec 2014 (Local Time) from KBFF Reporting Station
Clear Clear  
Wind Chill: 12°   Ceiling: Unl
Heat Index: 19°   Visibility: 10mi
Dew Point: 17°   Wind: 5mph
Humidity: 92%   Direction: 350°N
Pressure: 30.06"   Gusts: NA
Location:  42.42°N, 103.79°W
Report Text: KBFF 191653Z AUTO 35004KT 10SM CLR M07/M08 A3006 RMK AO2 SLP233 T10721083
Loading
Personal Weather Stations






























Interactive Weather Map New forecast layout! Learn more

10-Day Weather Forecast

Advertisements
Track Severe Weather on mobile